Terminal Aerodrome Forecast
Issued by NWS

Home | Current Version | Previous Version | Text Only | Print | Product List | Glossary On
Versions: 1 2 3 4 5 6 7 8 9 10 11 12 13 14
000
FTUS45 KVEF 211120
TAFBIH
TAF
KBIH 211120Z 2112/2212 27003KT P6SM SCT150
     FM211600 15006KT P6SM SCT150
     FM212000 17014G22KT P6SM VCSH SCT100 BKN150
      TEMPO 2123/2203 VRB15G30KT P6SM -SHRA SCT070 BKN100
     FM220300 16009KT P6SM SCT150
     FM220800 27005KT P6SM SCT150=

USA.gov is the U.S. government's official web portal to all federal, state and local government web resources and services.